createdAt,value
2018-06-19T06:35:41.700Z,17.40
2018-06-19T06:38:10.848Z,18.30
2018-06-19T06:40:40.303Z,18.30
2018-06-19T06:43:08.827Z,18.40
2018-06-19T06:45:38.019Z,18.60
2018-06-19T06:48:06.550Z,18.80
2018-06-19T06:50:35.268Z,19.00
2018-06-19T06:53:04.585Z,19.10
2018-06-19T06:55:34.169Z,19.20
2018-06-19T06:58:03.902Z,19.30
2018-06-19T07:00:32.728Z,19.40
2018-06-19T07:03:02.918Z,19.50
2018-06-19T07:05:31.430Z,19.50
2018-06-19T07:08:00.827Z,19.60
2018-06-19T07:10:31.284Z,19.70
2018-06-19T07:12:59.811Z,19.70
2018-06-19T07:15:28.420Z,19.70
2018-06-19T07:17:57.595Z,19.90
2018-06-19T07:20:29.151Z,20.10
2018-06-19T07:22:57.883Z,20.30
2018-06-19T07:25:28.205Z,20.50
2018-06-19T07:27:56.775Z,20.60
2018-06-19T07:30:25.480Z,20.60
2018-06-19T07:32:54.014Z,20.60
2018-06-19T07:35:23.214Z,20.70
2018-06-19T07:37:51.923Z,20.70
2018-06-19T07:40:20.539Z,20.70
2018-06-19T07:42:49.902Z,20.70
2018-06-19T07:45:19.766Z,20.70
2018-06-19T07:47:48.378Z,20.80
2018-06-19T07:50:17.116Z,20.90
2018-06-19T07:52:47.883Z,20.90
2018-06-19T07:55:18.063Z,21.00
2018-06-19T07:57:46.609Z,21.10
2018-06-19T08:00:16.154Z,21.20
2018-06-19T08:02:45.681Z,21.10
2018-06-19T08:05:14.415Z,20.90
2018-06-19T08:07:44.562Z,20.70
2018-06-19T08:10:13.172Z,20.40
2018-06-19T08:12:41.717Z,20.20
2018-06-19T08:15:10.930Z,20.10
2018-06-19T08:17:39.458Z,20.00
2018-06-19T08:20:09.368Z,20.00
2018-06-19T08:22:38.492Z,20.00
2018-06-19T08:25:07.189Z,20.00
2018-06-19T08:27:36.512Z,20.00
2018-06-19T08:30:05.360Z,20.20
2018-06-19T08:32:34.859Z,20.30
2018-06-19T08:35:03.699Z,20.30
2018-06-19T08:37:33.732Z,20.30
2018-06-19T08:40:04.068Z,20.30
2018-06-19T08:42:32.690Z,20.30
2018-06-19T08:45:01.230Z,20.50
2018-06-19T08:47:30.414Z,20.50
2018-06-19T08:49:59.862Z,20.60
2018-06-19T08:52:29.424Z,20.50
2018-06-19T08:54:58.702Z,20.60
2018-06-19T08:57:27.289Z,20.80
2018-06-19T08:59:55.881Z,21.20
2018-06-19T09:02:24.524Z,21.60
2018-06-19T09:04:54.095Z,21.80
2018-06-19T09:07:24.824Z,22.10
2018-06-19T09:09:53.437Z,22.60
2018-06-19T09:12:22.518Z,22.70
2018-06-19T09:14:51.053Z,22.70
2018-06-19T09:17:21.352Z,22.60
2018-06-19T09:19:50.040Z,22.70
2018-06-19T09:22:18.574Z,22.70
2018-06-19T09:24:48.057Z,22.70
2018-06-19T09:27:17.500Z,22.70
2018-06-19T09:29:46.193Z,22.60
2018-06-19T09:32:14.784Z,22.50
2018-06-19T09:34:43.292Z,22.50
2018-06-19T09:37:12.196Z,22.40
2018-06-19T09:39:40.913Z,22.40
2018-06-19T09:42:10.051Z,22.40
2018-06-19T09:44:39.884Z,22.50
2018-06-19T09:47:09.447Z,22.80
2018-06-19T09:49:42.708Z,22.90
2018-06-19T09:52:12.234Z,22.90
2018-06-19T09:54:42.941Z,22.90
2018-06-19T09:57:12.278Z,22.90
2018-06-19T09:59:45.144Z,22.90
2018-06-19T10:02:14.236Z,22.70
2018-06-19T10:04:45.150Z,22.60
2018-06-19T10:07:17.921Z,22.40
2018-06-19T10:09:47.306Z,22.30
2018-06-19T10:12:17.616Z,22.00
2018-06-19T10:14:46.218Z,21.90
2018-06-19T10:17:16.199Z,21.70
2018-06-19T10:19:44.869Z,21.70
2018-06-19T10:22:17.823Z,21.60
2018-06-19T10:24:47.778Z,21.70
2018-06-19T10:27:17.197Z,21.70
2018-06-19T10:29:47.062Z,21.70
2018-06-19T10:32:15.573Z,21.80
2018-06-19T10:34:44.131Z,21.90
2018-06-19T10:37:15.424Z,21.90
2018-06-19T10:39:44.102Z,22.00
2018-06-19T10:42:12.719Z,22.20
2018-06-19T10:44:41.490Z,22.40
2018-06-19T10:47:12.391Z,22.80
2018-06-19T10:49:42.705Z,23.10
2018-06-19T10:52:12.551Z,23.30
2018-06-19T10:54:41.066Z,23.40
2018-06-19T10:57:11.142Z,23.50
2018-06-19T10:59:39.779Z,23.50
2018-06-19T11:02:08.869Z,23.50
2018-06-19T11:04:40.241Z,23.60
2018-06-19T11:09:37.195Z,24.00
2018-06-19T11:12:05.706Z,24.10
2018-06-19T11:14:34.257Z,24.10
2018-06-19T11:17:02.862Z,23.80
2018-06-19T11:19:31.522Z,23.70
2018-06-19T11:22:00.027Z,23.90
2018-06-19T11:24:28.589Z,24.50
2018-06-19T11:26:57.265Z,25.10
2018-06-19T11:29:26.602Z,25.80
2018-06-19T11:31:55.113Z,26.20
2018-06-19T11:34:24.333Z,26.40
2018-06-19T11:36:54.853Z,26.70
2018-06-19T11:39:23.566Z,26.80
2018-06-19T11:41:52.635Z,26.70
2018-06-19T11:44:22.116Z,26.90
2018-06-19T11:46:51.618Z,27.10
2018-06-19T11:49:20.334Z,27.10
2018-06-19T11:51:48.840Z,26.90
2018-06-19T11:54:17.466Z,26.60
2018-06-19T11:56:46.100Z,26.60
2018-06-19T11:59:15.186Z,26.50
2018-06-19T12:01:44.572Z,26.10
2018-06-19T12:04:13.794Z,25.60
2018-06-19T12:06:42.388Z,25.60
2018-06-19T12:09:11.327Z,25.90
2018-06-19T12:11:40.913Z,26.10
2018-06-19T12:14:11.254Z,26.20
2018-06-19T12:16:39.847Z,26.10
2018-06-19T12:19:09.202Z,25.70
2018-06-19T12:21:37.788Z,25.50
2018-06-19T12:24:07.075Z,25.60
2018-06-19T12:26:35.613Z,25.70
2018-06-19T12:29:05.856Z,26.00
2018-06-19T12:31:35.308Z,26.40
2018-06-19T12:34:05.003Z,26.50
2018-06-19T12:36:35.086Z,26.60
2018-06-19T12:39:05.719Z,26.80
2018-06-19T12:41:44.480Z,26.90
2018-06-19T12:44:15.561Z,26.60
2018-06-19T12:46:44.193Z,27.00
2018-06-19T12:49:13.999Z,27.50
2018-06-19T12:51:55.314Z,28.40
2018-06-19T12:55:33.678Z,28.80
2018-06-19T12:58:02.897Z,28.50
2018-06-19T13:00:32.714Z,28.10
2018-06-19T13:03:12.472Z,28.20
2018-06-19T13:05:52.787Z,28.30
2018-06-19T13:08:21.986Z,28.40
2018-06-19T13:10:50.686Z,28.70
2018-06-19T13:14:30.620Z,28.80
2018-06-19T13:17:11.012Z,28.60
2018-06-19T13:19:50.801Z,28.30
2018-06-19T13:22:19.376Z,28.00
2018-06-19T13:24:47.996Z,28.00
2018-06-19T13:27:16.907Z,27.80
2018-06-19T13:30:02.147Z,27.90
2018-06-19T13:32:31.322Z,28.50
2018-06-19T13:34:59.845Z,29.80
2018-06-19T13:41:27.241Z,31.40
2018-06-19T13:45:07.267Z,32.10
2018-06-19T13:47:36.880Z,31.90
2018-06-19T13:50:05.543Z,32.30
2018-06-19T13:52:34.127Z,33.10
2018-06-19T13:57:24.065Z,33.30
2018-06-19T13:59:52.740Z,32.40
2018-06-19T14:02:21.321Z,30.10
2018-06-19T14:04:49.954Z,29.30
2018-06-19T14:07:18.588Z,28.80
2018-06-19T14:10:05.406Z,28.30
2018-06-19T14:12:51.434Z,27.60
2018-06-19T14:15:21.199Z,27.00
2018-06-19T14:17:49.884Z,26.60
2018-06-19T14:20:18.569Z,26.20
2018-06-19T14:22:47.134Z,26.00
2018-06-19T14:25:15.979Z,25.90
2018-06-19T14:27:44.535Z,25.70
2018-06-19T14:30:13.160Z,25.40
2018-06-19T14:32:41.870Z,25.20
2018-06-19T14:35:10.809Z,25.00
2018-06-19T14:37:39.457Z,24.80
2018-06-19T14:40:09.696Z,24.60
2018-06-19T14:42:38.239Z,24.40
2018-06-19T14:45:07.596Z,24.20
2018-06-19T14:47:36.208Z,23.90
2018-06-19T14:50:05.054Z,23.60
2018-06-19T14:52:33.720Z,23.40
2018-06-19T14:55:02.294Z,23.20
2018-06-19T14:57:30.944Z,23.00
2018-06-19T14:59:59.562Z,22.90
2018-06-19T15:02:28.077Z,22.70
2018-06-19T15:04:56.673Z,22.50
2018-06-19T15:07:25.207Z,22.40
2018-06-19T15:09:53.789Z,22.40
2018-06-19T15:12:22.419Z,22.40
2018-06-19T15:14:50.983Z,22.50
2018-06-19T15:19:47.858Z,22.90
2018-06-19T15:22:16.367Z,23.20
2018-06-19T15:24:44.873Z,23.50
2018-06-19T15:27:13.476Z,23.60
2018-06-19T15:29:42.234Z,23.70
2018-06-19T15:32:10.787Z,23.80
2018-06-19T15:34:39.373Z,23.80
2018-06-19T15:37:07.923Z,23.80
2018-06-19T15:39:36.568Z,23.70
2018-06-19T15:42:05.103Z,23.60
2018-06-19T15:44:33.720Z,23.50
2018-06-19T15:47:02.295Z,23.40
2018-06-19T15:49:30.959Z,23.30
2018-06-19T15:51:59.465Z,23.10
2018-06-19T15:54:28.313Z,23.00
2018-06-19T15:56:56.836Z,22.90
2018-06-19T15:59:25.438Z,22.90
2018-06-19T16:01:54.010Z,22.80
2018-06-19T16:04:22.608Z,22.90
2018-06-19T16:06:51.143Z,23.00
2018-06-19T16:09:20.407Z,23.20
2018-06-19T16:11:49.007Z,23.30
2018-06-19T16:14:17.617Z,23.40
2018-06-19T16:16:46.230Z,23.40
2018-06-19T16:19:14.820Z,23.30
2018-06-19T16:21:43.308Z,23.10
2018-06-19T16:24:11.944Z,23.00
2018-06-19T16:26:40.470Z,22.80
2018-06-19T16:29:09.158Z,22.50
2018-06-19T16:31:37.674Z,22.30
2018-06-19T16:34:06.222Z,22.10
2018-06-19T16:36:34.819Z,22.00
2018-06-19T16:39:04.088Z,21.90
2018-06-19T16:41:32.676Z,21.90
2018-06-19T16:44:01.217Z,21.80
2018-06-19T16:46:29.752Z,21.80
2018-06-19T16:48:58.321Z,21.70
2018-06-19T16:51:26.871Z,21.70
2018-06-19T16:53:55.557Z,21.60
2018-06-19T16:56:24.172Z,21.50
2018-06-19T16:58:52.750Z,21.50
2018-06-19T17:01:21.328Z,21.50
2018-06-19T17:03:50.278Z,21.50
2018-06-19T17:06:18.851Z,21.60
2018-06-19T17:08:47.433Z,21.70
2018-06-19T17:11:15.984Z,21.80
2018-06-19T17:13:44.550Z,21.90
2018-06-19T17:16:13.126Z,21.90
2018-06-19T17:18:41.677Z,21.90
2018-06-19T17:21:10.284Z,21.90
2018-06-19T17:23:38.818Z,21.90
2018-06-19T17:26:07.372Z,21.90
2018-06-19T17:28:35.928Z,21.90
2018-06-19T17:31:04.534Z,21.90
2018-06-19T17:33:33.066Z,21.80
2018-06-19T17:36:02.854Z,21.70
2018-06-19T17:38:31.477Z,21.60
2018-06-19T17:41:00.207Z,21.50
2018-06-19T17:43:28.709Z,21.50
2018-06-19T17:45:58.308Z,21.50
2018-06-19T17:48:27.246Z,21.40
2018-06-19T17:50:55.889Z,21.30
2018-06-19T17:53:24.489Z,21.20
2018-06-19T17:55:53.446Z,21.10
2018-06-19T17:58:21.983Z,21.10
2018-06-19T18:00:50.625Z,21.10
2018-06-19T18:03:19.141Z,21.10
2018-06-19T18:05:47.725Z,21.00
2018-06-19T18:08:16.288Z,20.90
2018-06-19T18:10:44.980Z,20.90
2018-06-19T18:13:13.496Z,20.90
2018-06-19T18:15:42.002Z,20.90
2018-06-19T18:18:10.559Z,20.90
2018-06-19T18:20:39.272Z,20.90
2018-06-19T18:23:07.859Z,20.90
2018-06-19T18:25:36.432Z,20.80
2018-06-19T18:28:04.932Z,20.80
2018-06-19T18:30:33.577Z,20.80
2018-06-19T18:33:02.154Z,20.80
2018-06-19T18:35:30.756Z,20.80
2018-06-19T18:37:59.425Z,20.80
2018-06-19T18:40:28.324Z,20.80
2018-06-19T18:42:56.938Z,20.80
2018-06-19T18:45:25.621Z,20.80
2018-06-19T18:47:54.312Z,20.70
2018-06-19T18:50:23.040Z,20.70
2018-06-19T18:52:51.636Z,20.70
2018-06-19T18:55:20.453Z,20.70
2018-06-19T18:57:49.036Z,20.70
2018-06-19T19:00:17.743Z,20.80
2018-06-19T19:02:46.422Z,20.70
2018-06-19T19:05:15.144Z,20.70
2018-06-19T19:07:43.741Z,20.70
2018-06-19T19:10:17.556Z,20.70
2018-06-19T19:12:46.294Z,20.70
2018-06-19T19:16:23.282Z,20.60
2018-06-19T19:18:57.188Z,20.60
2018-06-19T19:21:25.930Z,20.50
2018-06-19T19:23:54.555Z,20.40
2018-06-19T19:26:28.408Z,20.40
2018-06-19T19:29:02.541Z,20.40
2018-06-19T19:31:31.285Z,20.30
2018-06-19T19:33:59.843Z,20.30
2018-06-19T19:36:33.689Z,20.30
2018-06-19T19:39:07.488Z,20.30
2018-06-19T19:41:36.095Z,20.20
2018-06-19T19:44:04.808Z,20.20
2018-06-19T19:46:38.541Z,20.20
2018-06-19T19:49:07.205Z,20.10
2018-06-19T19:51:35.850Z,20.10
2018-06-19T19:54:04.451Z,20.10
2018-06-19T19:56:38.318Z,20.10
2018-06-19T19:59:07.211Z,20.10
2018-06-19T20:01:35.783Z,20.10
2018-06-19T20:04:04.438Z,20.00
2018-06-19T20:06:33.589Z,20.00
2018-06-19T20:09:02.238Z,20.00
2018-06-19T20:11:30.775Z,20.00
2018-06-19T20:13:59.778Z,20.00
2018-06-19T20:16:28.439Z,19.90
2018-06-19T20:18:57.062Z,19.90
2018-06-19T20:21:25.937Z,19.90
2018-06-19T20:23:56.195Z,19.90
2018-06-19T20:26:25.090Z,19.90
2018-06-19T20:28:54.103Z,19.90
2018-06-19T20:31:22.725Z,19.90
2018-06-19T20:33:51.256Z,19.90
2018-06-19T20:36:19.829Z,19.90
2018-06-19T20:38:48.432Z,19.90
2018-06-19T20:41:16.998Z,19.90
2018-06-19T20:43:45.663Z,19.80
2018-06-19T20:46:14.217Z,19.90
2018-06-19T20:48:42.842Z,19.80
2018-06-19T20:51:11.543Z,19.80
2018-06-19T20:53:40.162Z,19.80
2018-06-19T20:56:08.725Z,19.80
2018-06-19T20:58:37.278Z,19.80
2018-06-19T21:01:05.899Z,19.90
2018-06-19T21:03:34.485Z,19.90
2018-06-19T21:06:03.038Z,19.90
2018-06-19T21:08:40.612Z,19.90
2018-06-19T21:11:10.799Z,19.90
2018-06-19T21:13:39.382Z,19.90
2018-06-19T21:16:08.745Z,19.80
2018-06-19T21:18:37.996Z,19.80
2018-06-19T21:21:07.073Z,19.80
2018-06-19T21:26:03.926Z,19.80
2018-06-19T21:28:32.537Z,19.80
2018-06-19T21:31:01.192Z,19.80
2018-06-19T21:33:29.724Z,19.80
2018-06-19T21:35:58.338Z,19.70
2018-06-19T21:38:26.942Z,19.70
2018-06-19T21:40:55.614Z,19.80
